Time;durP1;ratioP1;P1;durP2;ratioP2;P2;SDS_P1;SDS_P2;PMS_P1;PMS_P2;Temp;Humidity;BMP_temperature;BMP_pressure;BME280_temperature;BME280_humidity;BME280_pressure;Samples;Min_cycle;Max_cycle;Signal;HPM_P1;HPM_P2
2021/06/08 00:01:01;;;;;;;;;12.75;12.75;;;;;22.50;46.24;101914.94;5060153;28;45555;-79
2021/06/08 00:03:26;;;;;;;;;15.25;13.25;;;;;22.49;45.93;101909.63;5073565;28;45213;-82
2021/06/08 00:05:52;;;;;;;;;13.75;13.75;;;;;22.46;46.46;101921.03;5068470;28;45355;-81
2021/06/08 00:08:18;;;;;;;;;15.75;13.00;;;;;22.37;46.15;101920.88;5060885;28;45921;-80
2021/06/08 00:10:43;;;;;;;;;13.00;13.00;;;;;22.31;46.29;101924.31;5056896;28;45393;-82
2021/06/08 00:13:09;;;;;;;;;12.50;12.50;;;;;22.31;46.24;101923.41;5055630;28;45287;-81
2021/06/08 00:15:34;;;;;;;;;17.50;15.25;;;;;22.24;46.00;101918.06;5056691;28;45444;-76
2021/06/08 00:18:01;;;;;;;;;16.00;15.75;;;;;22.21;46.44;101920.66;5056517;27;45370;-81
2021/06/08 00:20:26;;;;;;;;;14.75;14.00;;;;;22.21;46.83;101925.06;5056138;28;45430;-82
2021/06/08 00:22:52;;;;;;;;;14.00;14.00;;;;;22.19;46.42;101913.59;5056115;28;45384;-81
2021/06/08 00:25:18;;;;;;;;;15.25;13.75;;;;;22.18;46.98;101915.34;5056358;28;45310;-82
2021/06/08 00:27:43;;;;;;;;;15.75;15.75;;;;;22.13;46.62;101918.78;5056153;28;45933;-82
2021/06/08 00:30:09;;;;;;;;;14.00;14.00;;;;;22.10;46.98;101902.06;5056254;28;45340;-82
2021/06/08 00:32:35;;;;;;;;;14.00;13.00;;;;;22.09;46.86;101907.28;5055355;28;45396;-79
2021/06/08 00:35:01;;;;;;;;;14.25;14.25;;;;;22.04;47.33;101907.22;5059603;28;45237;-81
2021/06/08 00:37:26;;;;;;;;;14.00;14.00;;;;;22.06;47.58;101915.19;5064715;28;45768;-82
2021/06/08 00:39:53;;;;;;;;;12.75;12.75;;;;;22.02;47.64;101915.97;5064062;28;45377;-80
2021/06/08 00:42:33;;;;;;;;;15.25;15.25;;;;;21.93;47.18;101932.53;5063439;28;45294;-82
2021/06/08 00:44:59;;;;;;;;;14.00;11.75;;;;;21.73;47.65;101932.22;5064096;28;45447;-82
2021/06/08 00:47:25;;;;;;;;;13.75;12.50;;;;;21.55;48.53;101925.75;5078235;28;47008;-82
2021/06/08 00:49:52;;;;;;;;;13.25;13.25;;;;;21.54;48.21;101916.09;5081789;28;45140;-81
2021/06/08 00:52:18;;;;;;;;;12.50;11.75;;;;;21.55;48.10;101923.09;5079574;28;45304;-80
2021/06/08 00:54:44;;;;;;;;;14.50;13.00;;;;;21.57;48.48;101928.41;5075753;28;44814;-80
2021/06/08 00:57:10;;;;;;;;;14.75;14.50;;;;;21.47;48.13;101928.28;5066308;28;46036;-81
2021/06/08 00:59:35;;;;;;;;;17.75;14.50;;;;;21.25;48.77;101915.56;5067736;28;45412;-81
2021/06/08 01:02:01;;;;;;;;;14.00;14.00;;;;;21.25;48.57;101907.66;5064300;28;45259;-81
2021/06/08 01:04:27;;;;;;;;;15.25;13.75;;;;;21.22;48.30;101919.00;5067887;28;45418;-81
2021/06/08 01:06:52;;;;;;;;;16.00;15.00;;;;;21.07;48.85;101916.09;5061659;28;45644;-81
2021/06/08 01:09:18;;;;;;;;;18.75;18.00;;;;;20.95;49.37;101912.38;5063599;28;45347;-81
2021/06/08 01:11:43;;;;;;;;;18.50;16.25;;;;;20.77;49.27;101904.13;5065920;28;45173;-80
2021/06/08 01:14:09;;;;;;;;;18.00;17.50;;;;;20.85;49.73;101906.03;5059887;28;45462;-81
2021/06/08 01:16:35;;;;;;;;;13.75;13.75;;;;;20.88;49.59;101910.50;5058948;28;45932;-77
2021/06/08 01:19:01;;;;;;;;;15.25;14.50;;;;;20.67;49.59;101918.78;5059330;28;45247;-81
2021/06/08 01:21:28;;;;;;;;;15.75;15.50;;;;;20.49;50.12;101914.94;5057206;28;45494;-81
2021/06/08 01:23:55;;;;;;;;;18.00;15.25;;;;;20.53;49.95;101918.50;5058858;28;45469;-81
2021/06/08 01:26:23;;;;;;;;;16.25;15.25;;;;;20.37;50.45;101905.00;5058614;28;46256;-81
2021/06/08 01:28:49;;;;;;;;;17.75;15.25;;;;;20.40;50.58;101918.25;5056866;28;45882;-81
2021/06/08 01:31:20;;;;;;;;;16.75;15.50;;;;;20.19;50.81;101920.41;5059007;28;45351;-81
2021/06/08 01:33:46;;;;;;;;;16.00;15.25;;;;;20.04;51.60;101915.69;5058386;28;45412;-80
2021/06/08 01:36:15;;;;;;;;;19.75;18.50;;;;;19.98;51.53;101918.16;5058511;28;46126;-81
2021/06/08 01:38:42;;;;;;;;;16.50;15.75;;;;;19.66;52.24;101919.13;5058465;28;45297;-78
2021/06/08 01:41:14;;;;;;;;;21.00;17.00;;;;;19.61;52.49;101920.72;5064682;28;45359;-80
2021/06/08 01:43:41;;;;;;;;;18.50;17.50;;;;;19.53;53.15;101924.91;5060144;28;45259;-80
2021/06/08 01:46:08;;;;;;;;;19.50;16.50;;;;;19.30;53.32;101928.72;5058618;28;45387;-80
2021/06/08 01:48:35;;;;;;;;;19.75;18.75;;;;;19.34;53.18;101927.06;5058941;28;45676;-81
2021/06/08 01:51:08;;;;;;;;;12.50;12.50;;;;;19.30;53.41;101930.44;5057680;28;45461;-80
2021/06/08 01:53:52;;;;;;;;;16.75;15.50;;;;;19.28;53.55;101925.16;5059041;28;45206;-80
2021/06/08 01:56:22;;;;;;;;;16.50;16.00;;;;;19.48;53.19;101920.44;5056752;28;47062;-81
2021/06/08 01:59:11;;;;;;;;;19.50;18.25;;;;;19.39;53.15;101930.69;5073555;27;46023;-80
2021/06/08 02:02:08;;;;;;;;;17.00;15.75;;;;;19.53;52.89;101925.81;5058113;28;45276;-78
2021/06/08 02:04:52;;;;;;;;;18.00;15.75;;;;;19.59;52.50;101928.59;5058659;28;45420;-80
2021/06/08 02:07:43;;;;;;;;;15.00;15.00;;;;;19.69;52.82;101920.94;5058012;28;45906;-80
2021/06/08 02:10:30;;;;;;;;;18.25;17.75;;;;;19.74;52.41;101935.09;5058581;28;45413;-80
2021/06/08 02:13:07;;;;;;;;;19.00;19.00;;;;;19.37;53.28;101935.03;5064223;28;45242;-80
2021/06/08 02:15:37;;;;;;;;;19.50;15.75;;;;;19.27;53.51;101939.13;5057447;28;45356;-81
2021/06/08 02:18:04;;;;;;;;;23.75;20.75;;;;;19.36;53.44;101940.22;5058168;28;45370;-80
2021/06/08 02:20:33;;;;;;;;;25.00;19.00;;;;;19.45;53.06;101932.56;5057474;28;45353;-81
2021/06/08 02:23:05;;;;;;;;;21.50;19.00;;;;;19.55;52.85;101942.47;5057851;28;45275;-81
2021/06/08 02:25:32;;;;;;;;;18.75;17.25;;;;;19.44;53.45;101943.94;5058231;28;45488;-81
2021/06/08 02:28:02;;;;;;;;;19.25;18.50;;;;;19.47;53.06;101939.69;5056114;28;46179;-80
2021/06/08 02:30:31;;;;;;;;;17.75;16.75;;;;;19.38;53.04;101955.19;5057796;28;45473;-82
2021/06/08 02:32:58;;;;;;;;;16.75;16.25;;;;;19.27;53.30;101933.88;5057558;28;45224;-80
2021/06/08 02:35:25;;;;;;;;;23.00;18.25;;;;;19.39;52.86;101935.94;5058173;28;45615;-81
2021/06/08 02:37:53;;;;;;;;;16.00;16.00;;;;;19.47;52.73;101944.94;5057574;28;46024;-81
2021/06/08 02:40:20;;;;;;;;;17.25;14.75;;;;;19.55;52.56;101936.34;5061685;28;45869;-79
2021/06/08 02:42:47;;;;;;;;;21.75;19.75;;;;;19.34;53.18;101941.06;5062097;28;45252;-81
2021/06/08 02:45:14;;;;;;;;;19.00;17.75;;;;;19.40;52.95;101955.22;5071638;28;45345;-81
2021/06/08 02:47:43;;;;;;;;;16.75;16.00;;;;;19.40;52.97;101949.97;5075177;28;46602;-82
2021/06/08 02:50:11;;;;;;;;;20.50;17.50;;;;;19.43;52.51;101958.81;5072898;28;45788;-80
2021/06/08 02:52:37;;;;;;;;;19.00;19.00;;;;;19.46;52.39;101953.66;5067342;28;45243;-80
2021/06/08 02:55:05;;;;;;;;;21.00;16.00;;;;;19.48;52.42;101958.94;5062654;28;45181;-83
2021/06/08 02:57:33;;;;;;;;;18.25;15.25;;;;;19.53;52.23;101959.06;5058238;28;46520;-81
2021/06/08 03:00:03;;;;;;;;;19.25;17.50;;;;;19.56;52.33;101965.28;5057075;28;45338;-80
2021/06/08 03:02:34;;;;;;;;;18.25;17.00;;;;;19.54;52.12;101948.59;5057390;28;45304;-80
2021/06/08 03:05:16;;;;;;;;;23.25;17.75;;;;;19.60;52.12;101953.09;5057538;28;45573;-81
2021/06/08 03:07:45;;;;;;;;;21.75;17.50;;;;;19.61;51.85;101963.66;5057104;28;45421;-81
2021/06/08 03:10:15;;;;;;;;;21.75;19.50;;;;;19.40;51.92;101969.22;5057237;28;45256;-83
2021/06/08 03:12:54;;;;;;;;;23.50;17.75;;;;;19.15;52.56;101978.19;5056940;28;45833;-83
2021/06/08 03:15:26;;;;;;;;;17.25;16.75;;;;;19.17;52.26;101966.88;5059718;28;45522;-80
2021/06/08 03:17:52;;;;;;;;;15.50;15.25;;;;;19.22;52.21;101968.75;5061807;28;45426;-82
2021/06/08 03:20:27;;;;;;;;;18.75;16.50;;;;;19.25;52.53;101971.47;5074959;28;45351;-82
2021/06/08 03:22:58;;;;;;;;;18.50;15.50;;;;;19.28;52.01;101963.63;5057208;28;45432;-81
2021/06/08 03:25:26;;;;;;;;;21.75;20.75;;;;;19.30;51.98;101965.47;5057105;28;45309;-80
2021/06/08 03:27:54;;;;;;;;;18.50;16.00;;;;;19.35;52.38;101968.22;5056538;28;45601;-80
2021/06/08 03:30:21;;;;;;;;;17.50;15.75;;;;;19.21;51.81;101965.25;5055837;28;45413;-82
2021/06/08 03:32:50;;;;;;;;;20.00;14.75;;;;;19.15;52.54;101963.34;5069217;28;45234;-80
2021/06/08 03:35:16;;;;;;;;;13.75;13.75;;;;;19.05;52.33;101957.75;5057060;28;45408;-79
2021/06/08 03:37:43;;;;;;;;;22.50;17.50;;;;;18.96;52.61;101975.03;5056131;28;45499;-79
2021/06/08 03:40:11;;;;;;;;;18.50;17.50;;;;;18.83;52.46;101973.75;5056703;28;45350;-80
2021/06/08 03:42:39;;;;;;;;;18.75;17.00;;;;;18.78;52.77;101977.97;5057221;28;45378;-80
2021/06/08 03:45:08;;;;;;;;;19.75;17.75;;;;;18.65;53.05;101973.19;5058703;28;45466;-77
2021/06/08 03:47:34;;;;;;;;;17.50;16.50;;;;;18.69;53.26;101969.84;5063745;28;45452;-82
2021/06/08 03:50:00;;;;;;;;;16.25;15.00;;;;;18.69;53.06;101970.72;5057384;28;45260;-81
2021/06/08 03:52:26;;;;;;;;;22.50;19.00;;;;;18.64;52.78;101964.44;5056773;28;45507;-81
2021/06/08 03:54:52;;;;;;;;;19.50;19.00;;;;;18.65;53.38;101973.19;5056374;28;45517;-83
2021/06/08 03:57:26;;;;;;;;;24.00;18.75;;;;;18.74;53.16;101964.72;5056251;28;45283;-81
2021/06/08 03:59:52;;;;;;;;;21.00;17.75;;;;;18.65;53.10;101974.09;5057075;28;45355;-80
2021/06/08 04:02:19;;;;;;;;;18.25;17.50;;;;;18.74;53.17;101973.47;5058114;28;45249;-80
2021/06/08 04:04:45;;;;;;;;;21.50;17.25;;;;;18.75;53.20;101959.50;5056601;28;45496;-80
2021/06/08 04:07:12;;;;;;;;;18.00;16.25;;;;;18.88;52.80;101976.53;5056429;28;45422;-81
2021/06/08 04:09:38;;;;;;;;;17.75;17.25;;;;;18.97;52.98;101963.69;5056358;28;45419;-79
2021/06/08 04:12:04;;;;;;;;;19.50;16.75;;;;;19.09;52.32;101972.75;5056676;28;45328;-81
2021/06/08 04:14:31;;;;;;;;;19.75;16.75;;;;;19.15;52.40;101967.66;5056698;28;45666;-82
2021/06/08 04:16:57;;;;;;;;;19.00;19.00;;;;;19.24;51.98;101967.06;5058873;28;45373;-79
2021/06/08 04:19:23;;;;;;;;;19.75;17.00;;;;;19.27;52.14;101967.16;5061201;27;45259;-81
2021/06/08 04:21:51;;;;;;;;;21.25;19.00;;;;;19.31;51.94;101975.16;5062904;28;45274;-85
2021/06/08 04:24:17;;;;;;;;;23.75;21.00;;;;;18.97;51.99;101974.19;5060326;28;45338;-87
2021/06/08 04:26:43;;;;;;;;;22.00;21.25;;;;;18.95;52.34;101986.38;5056978;28;46032;-86
2021/06/08 04:29:09;;;;;;;;;24.75;21.75;;;;;18.84;52.49;101979.88;5057574;28;45522;-85
2021/06/08 04:31:35;;;;;;;;;24.00;23.00;;;;;18.90;52.36;101974.81;5057411;28;45460;-75
2021/06/08 04:34:01;;;;;;;;;29.25;23.25;;;;;18.98;52.12;101972.44;5059623;28;45563;-85
2021/06/08 04:36:26;;;;;;;;;22.50;22.00;;;;;18.82;52.61;101974.59;5060267;28;45322;-87
2021/06/08 04:38:55;;;;;;;;;21.25;16.00;;;;;18.94;52.43;101979.34;5060178;28;45329;-87
2021/06/08 04:41:21;;;;;;;;;23.00;21.75;;;;;19.01;52.29;101978.66;5060422;28;45356;-87
2021/06/08 04:43:47;;;;;;;;;22.50;18.00;;;;;19.08;52.19;101984.09;5061904;28;45289;-88
2021/06/08 04:46:15;;;;;;;;;19.25;16.50;;;;;19.15;52.50;101986.97;5066294;28;45401;-86
2021/06/08 04:48:41;;;;;;;;;18.00;17.50;;;;;19.16;51.95;101980.88;5064812;28;45721;-87
2021/06/08 04:51:07;;;;;;;;;17.50;16.00;;;;;19.18;51.88;101987.03;5065156;28;45327;-86
2021/06/08 04:53:33;;;;;;;;;24.25;22.00;;;;;19.19;51.99;101985.31;5063339;28;45456;-87
2021/06/08 04:55:59;;;;;;;;;21.00;18.75;;;;;19.02;52.15;101985.69;5060967;28;45908;-87
2021/06/08 04:58:25;;;;;;;;;22.25;20.25;;;;;19.03;52.29;101986.59;5059299;28;45337;-86
2021/06/08 05:01:04;;;;;;;;;22.75;20.25;;;;;18.97;52.42;101983.78;5060521;28;45345;-84
2021/06/08 05:03:42;;;;;;;;;17.50;16.25;;;;;19.01;52.14;101980.41;5060104;28;45254;-84
2021/06/08 05:06:26;;;;;;;;;19.75;16.25;;;;;19.06;52.38;101984.03;5057927;28;45698;-85
2021/06/08 05:09:00;;;;;;;;;16.50;16.50;;;;;18.88;52.29;101994.88;5059024;28;45833;-82
2021/06/08 05:11:41;;;;;;;;;19.75;18.50;;;;;18.91;52.51;102008.06;5057856;28;45267;-81
2021/06/08 05:14:10;;;;;;;;;20.75;18.50;;;;;18.91;52.61;101996.72;5057934;28;45506;-82
2021/06/08 05:16:39;;;;;;;;;21.00;18.75;;;;;18.98;52.44;101996.97;5058977;28;45286;-82
2021/06/08 05:19:08;;;;;;;;;26.00;23.25;;;;;18.66;52.74;101990.72;5059840;28;45519;-80
2021/06/08 05:21:36;;;;;;;;;19.75;18.00;;;;;18.72;52.62;101993.53;5063756;28;45359;-78
2021/06/08 05:24:04;;;;;;;;;24.00;22.00;;;;;18.76;52.47;101990.16;5059235;28;45238;-80
2021/06/08 05:26:33;;;;;;;;;21.50;17.00;;;;;18.80;52.66;101988.50;5058825;28;46238;-79
2021/06/08 05:28:59;;;;;;;;;21.25;18.50;;;;;18.88;52.66;101985.28;5059657;28;45416;-81
2021/06/08 05:31:25;;;;;;;;;20.00;17.75;;;;;18.91;52.35;102001.97;5058392;28;45394;-79
2021/06/08 05:33:57;;;;;;;;;21.75;17.50;;;;;18.84;52.56;101991.25;5058458;28;45467;-81
2021/06/08 05:36:23;;;;;;;;;22.00;18.00;;;;;18.91;52.52;102004.59;5057373;28;46129;-82
2021/06/08 05:38:50;;;;;;;;;20.50;18.00;;;;;18.74;52.52;102004.06;5058114;28;45391;-82
2021/06/08 05:41:16;;;;;;;;;16.00;16.00;;;;;18.70;52.63;101995.22;5059042;28;45190;-82
2021/06/08 05:43:42;;;;;;;;;16.75;16.00;;;;;18.78;52.58;102008.59;5056724;28;45515;-82
2021/06/08 05:46:10;;;;;;;;;17.00;15.50;;;;;18.79;52.39;102005.13;5057775;28;45981;-82
2021/06/08 05:48:37;;;;;;;;;22.75;19.50;;;;;18.75;52.78;102011.97;5041533;28;45464;-80
2021/06/08 05:51:08;;;;;;;;;21.75;20.00;;;;;18.73;52.63;101995.31;5059607;28;45296;-87
2021/06/08 05:53:43;;;;;;;;;21.75;20.50;;;;;18.72;52.60;102004.03;5056920;28;46736;-86
2021/06/08 05:56:09;;;;;;;;;19.75;19.00;;;;;18.76;52.73;102010.25;5063225;28;45285;-88
2021/06/08 05:58:36;;;;;;;;;21.00;21.00;;;;;18.87;52.80;102001.84;5063989;28;45402;-83
2021/06/08 06:01:04;;;;;;;;;22.00;22.00;;;;;18.95;52.49;101999.50;5061474;28;45419;-80
2021/06/08 06:03:33;;;;;;;;;25.25;21.75;;;;;18.97;52.72;101997.81;5068041;28;45419;-84
2021/06/08 06:05:59;;;;;;;;;22.75;20.25;;;;;19.06;52.06;102004.16;5061086;28;45643;-80
2021/06/08 06:08:26;;;;;;;;;24.75;20.75;;;;;19.02;52.37;102005.81;5072983;28;45965;-81
2021/06/08 06:10:53;;;;;;;;;27.25;23.25;;;;;19.05;52.13;102008.53;5067968;28;45347;-81
2021/06/08 06:13:24;;;;;;;;;20.50;19.50;;;;;18.91;52.65;102004.59;5062157;28;45561;-82
2021/06/08 06:15:50;;;;;;;;;29.00;24.25;;;;;18.61;52.61;102006.31;5057413;28;45459;-80
2021/06/08 06:18:18;;;;;;;;;33.50;31.25;;;;;18.72;53.03;102011.91;5058746;28;45423;-80
2021/06/08 06:20:50;;;;;;;;;36.75;33.50;;;;;18.66;53.08;102020.47;5057362;28;45393;-78
2021/06/08 06:23:20;;;;;;;;;22.75;19.75;;;;;18.51;53.77;102014.75;5058210;28;45497;-81
2021/06/08 06:25:48;;;;;;;;;25.00;22.75;;;;;18.64;53.48;102013.38;5056295;28;45605;-77
2021/06/08 06:28:15;;;;;;;;;21.50;20.00;;;;;18.71;53.36;102018.00;5056393;28;45758;-79
2021/06/08 06:30:42;;;;;;;;;23.75;22.75;;;;;18.79;53.17;102013.00;5057409;28;45528;-77
2021/06/08 06:33:07;;;;;;;;;28.00;24.00;;;;;18.84;53.00;102014.88;5057518;28;45355;-78
2021/06/08 06:35:34;;;;;;;;;25.75;23.50;;;;;18.86;53.10;102002.69;5056431;28;45470;-82
2021/06/08 06:38:03;;;;;;;;;24.75;22.25;;;;;18.90;52.79;102011.53;5054790;27;45471;-79
2021/06/08 06:40:31;;;;;;;;;25.25;21.50;;;;;18.76;53.07;102019.00;5055627;28;45426;-78
2021/06/08 06:43:02;;;;;;;;;27.25;23.75;;;;;18.81;53.50;102006.03;5053332;28;45537;-80
2021/06/08 06:45:33;;;;;;;;;30.75;27.25;;;;;18.83;53.47;102010.50;5055686;28;45435;-79
2021/06/08 06:48:02;;;;;;;;;24.00;21.00;;;;;18.87;53.28;102017.59;5054091;28;45453;-80
2021/06/08 06:50:37;;;;;;;;;25.00;23.00;;;;;18.84;53.31;102021.88;5054329;28;45582;-79
2021/06/08 06:53:04;;;;;;;;;32.00;27.50;;;;;18.79;54.05;102026.09;5055657;28;45373;-79
2021/06/08 06:55:31;;;;;;;;;24.50;23.75;;;;;18.76;53.69;102023.38;5054574;28;46273;-79
2021/06/08 06:57:59;;;;;;;;;28.25;24.25;;;;;18.65;53.95;102017.78;5050786;28;45461;-80
2021/06/08 07:00:27;;;;;;;;;28.00;25.75;;;;;18.78;53.78;102022.56;5054273;28;45821;-79
2021/06/08 07:02:55;;;;;;;;;26.25;25.75;;;;;18.70;53.91;102030.19;5057718;28;45478;-79
2021/06/08 07:05:24;;;;;;;;;29.50;29.00;;;;;18.74;54.22;102032.94;5058552;28;45398;-79
2021/06/08 07:07:51;;;;;;;;;30.00;25.75;;;;;18.81;54.22;102030.56;5059587;28;45470;-79
2021/06/08 07:10:26;;;;;;;;;30.50;26.25;;;;;18.96;54.07;102021.38;5066779;28;45549;-77
2021/06/08 07:12:55;;;;;;;;;35.00;30.50;;;;;19.06;53.60;102018.16;5066464;28;45233;-77
2021/06/08 07:15:29;;;;;;;;;27.50;27.00;;;;;19.08;53.89;102020.84;5065758;28;45535;-78
2021/06/08 07:17:55;;;;;;;;;31.25;27.25;;;;;19.06;53.75;102017.28;5058044;28;45949;-78
2021/06/08 07:20:23;;;;;;;;;32.75;31.50;;;;;19.05;53.55;102012.88;5058073;28;45452;-77
2021/06/08 07:22:50;;;;;;;;;29.75;29.25;;;;;19.06;53.93;102018.16;5057214;28;45554;-77
2021/06/08 07:25:18;;;;;;;;;33.50;29.50;;;;;19.21;53.38;102020.38;5056335;28;45547;-79
2021/06/08 07:27:44;;;;;;;;;33.00;30.25;;;;;19.25;54.07;102013.47;5069435;28;45117;-86
2021/06/08 07:30:13;;;;;;;;;29.00;29.00;;;;;19.36;54.79;102016.38;5068405;28;45194;-80
2021/06/08 07:32:43;;;;;;;;;35.00;30.25;;;;;19.44;54.08;102013.13;5068084;28;45382;-84
2021/06/08 07:35:22;;;;;;;;;30.50;29.75;;;;;19.53;53.78;102012.50;5057283;28;45560;-80
2021/06/08 07:37:50;;;;;;;;;38.75;31.25;;;;;19.58;54.31;102010.00;5054406;28;45350;-80
2021/06/08 07:40:24;;;;;;;;;38.00;34.00;;;;;19.66;54.22;102013.69;5056968;28;45397;-78
2021/06/08 07:42:56;;;;;;;;;36.75;30.50;;;;;19.71;54.13;102011.19;5057916;28;45382;-79
2021/06/08 07:45:32;;;;;;;;;35.00;28.75;;;;;19.78;53.74;102014.03;5054846;28;47804;-79
2021/06/08 07:48:00;;;;;;;;;38.75;32.50;;;;;19.82;53.71;102007.13;5055766;28;45372;-80
2021/06/08 07:50:31;;;;;;;;;31.25;29.50;;;;;19.79;53.13;101992.16;5056264;27;45401;-84
2021/06/08 07:52:57;;;;;;;;;32.75;28.25;;;;;19.92;53.60;101992.50;5056803;28;45398;-82
2021/06/08 07:55:24;;;;;;;;;31.00;26.75;;;;;20.06;53.42;102004.22;5056069;28;45518;-78
2021/06/08 07:57:49;;;;;;;;;35.25;31.25;;;;;20.09;53.17;102006.03;5059324;28;45558;-81
2021/06/08 08:00:16;;;;;;;;;29.50;27.25;;;;;20.12;53.24;101995.59;5057872;28;45533;-77
2021/06/08 08:02:44;;;;;;;;;32.75;30.25;;;;;20.20;53.02;101999.31;5055173;28;45323;-76
2021/06/08 08:05:14;;;;;;;;;37.75;31.50;;;;;20.23;53.23;101993.25;5055560;28;46288;-77
2021/06/08 08:07:41;;;;;;;;;28.00;28.00;;;;;20.28;52.80;101994.22;5055396;28;45399;-83
2021/06/08 08:10:07;;;;;;;;;34.50;30.75;;;;;20.27;52.77;101981.94;5056402;28;45370;-84
2021/06/08 08:12:38;;;;;;;;;29.75;27.50;;;;;20.41;52.80;102001.56;5055223;28;45440;-85
2021/06/08 08:15:07;;;;;;;;;31.00;28.75;;;;;20.48;52.30;102009.59;5055030;28;46679;-85
2021/06/08 08:17:34;;;;;;;;;34.50;31.25;;;;;20.46;52.44;101992.91;5054400;28;45742;-86
2021/06/08 08:20:04;;;;;;;;;35.50;30.75;;;;;20.52;51.97;101990.41;5054737;27;45438;-82
2021/06/08 08:22:30;;;;;;;;;31.25;30.75;;;;;20.50;52.29;101984.22;5056371;28;45454;-83
2021/06/08 08:24:56;;;;;;;;;33.50;28.00;;;;;20.60;52.05;101975.66;5056262;28;46100;-82
2021/06/08 08:27:23;;;;;;;;;31.75;28.75;;;;;20.75;52.26;101990.94;5058368;28;45335;-83
2021/06/08 08:29:48;;;;;;;;;39.75;34.25;;;;;20.71;51.84;101965.38;5064220;28;45249;-80
2021/06/08 08:32:15;;;;;;;;;38.25;32.75;;;;;20.86;51.63;101978.00;5063109;28;45338;-82
2021/06/08 08:34:42;;;;;;;;;36.00;31.75;;;;;20.90;51.67;101976.31;5057626;28;45394;-84
2021/06/08 08:37:08;;;;;;;;;43.50;37.00;;;;;20.84;51.81;101972.69;5057599;28;45440;-83
2021/06/08 08:39:34;;;;;;;;;37.25;32.50;;;;;20.83;51.94;101980.56;5056469;28;45350;-84
2021/06/08 08:42:00;;;;;;;;;40.50;33.00;;;;;20.92;51.31;101970.22;5055762;28;45417;-84
2021/06/08 08:44:26;;;;;;;;;40.00;34.75;;;;;20.92;51.53;101967.59;5055961;28;46788;-84
2021/06/08 08:46:52;;;;;;;;;40.25;34.50;;;;;20.95;50.56;101967.66;5057067;28;45323;-81
2021/06/08 08:49:18;;;;;;;;;32.00;31.25;;;;;21.02;50.53;101966.91;5057320;28;45350;-83
2021/06/08 08:51:48;;;;;;;;;37.00;33.25;;;;;21.08;50.46;101970.56;5055624;28;45401;-81
2021/06/08 08:54:14;;;;;;;;;39.00;33.00;;;;;21.14;50.80;101965.38;5053959;28;47950;-79
2021/06/08 08:56:41;;;;;;;;;41.50;32.00;;;;;21.22;50.09;101963.78;5052477;28;45428;-80
2021/06/08 08:59:16;;;;;;;;;34.50;32.25;;;;;21.32;50.27;101971.03;5054416;28;45336;-78
2021/06/08 09:01:46;;;;;;;;;37.00;33.50;;;;;21.38;50.33;101969.34;5060232;28;45242;-79
2021/06/08 09:04:13;;;;;;;;;33.75;31.25;;;;;21.43;49.93;101973.84;5060091;28;46828;-79
2021/06/08 09:06:39;;;;;;;;;35.25;31.75;;;;;21.50;50.09;101978.38;5058881;28;45498;-81
2021/06/08 09:09:07;;;;;;;;;27.75;26.50;;;;;21.59;50.41;101972.41;5056893;28;45424;-82
2021/06/08 09:11:39;;;;;;;;;35.00;30.75;;;;;21.64;50.20;101970.75;5052409;28;45613;-78
2021/06/08 09:14:07;;;;;;;;;31.25;29.75;;;;;21.72;50.22;101954.19;5057059;28;45552;-80
2021/06/08 09:16:34;;;;;;;;;30.75;27.25;;;;;21.82;50.06;101958.75;5055589;28;45977;-83
2021/06/08 09:19:04;;;;;;;;;32.50;29.25;;;;;21.86;49.56;101955.31;5055939;28;45447;-82
2021/06/08 09:21:32;;;;;;;;;29.25;27.50;;;;;21.90;49.18;101950.97;5061211;28;45470;-83
2021/06/08 09:24:23;;;;;;;;;29.75;28.25;;;;;21.98;49.79;101953.69;5059947;28;45310;-83
2021/06/08 09:27:06;;;;;;;;;30.25;27.75;;;;;22.00;48.68;101944.97;5059301;28;45454;-83
2021/06/08 09:29:40;;;;;;;;;30.75;29.50;;;;;22.07;49.14;101945.97;5060507;28;45270;-83
2021/06/08 09:32:20;;;;;;;;;26.75;24.50;;;;;22.05;48.61;101929.22;5061093;28;45498;-83
2021/06/08 09:34:51;;;;;;;;;34.25;32.50;;;;;22.13;48.36;101940.75;5059452;28;45261;-83
2021/06/08 09:37:32;;;;;;;;;35.25;29.50;;;;;22.14;48.02;101941.66;5058648;28;45472;-81
2021/06/08 09:39:58;;;;;;;;;32.00;29.00;;;;;22.17;48.58;101945.22;5058601;28;45394;-81
2021/06/08 09:42:26;;;;;;;;;37.00;32.00;;;;;22.14;47.86;101937.25;5057757;28;45539;-84
2021/06/08 09:44:52;;;;;;;;;31.50;29.50;;;;;22.17;47.85;101925.88;5055038;28;45666;-84
2021/06/08 09:47:26;;;;;;;;;31.25;28.25;;;;;22.28;48.00;101940.09;5057806;28;45906;-83
2021/06/08 09:49:52;;;;;;;;;27.75;23.50;;;;;22.33;47.58;101934.88;5058514;28;45379;-83
2021/06/08 09:52:20;;;;;;;;;21.00;20.75;;;;;22.36;47.11;101934.94;5063735;28;45442;-82
2021/06/08 09:54:50;;;;;;;;;22.50;21.25;;;;;22.41;47.08;101928.88;5061027;28;46195;-81
2021/06/08 09:57:27;;;;;;;;;19.75;18.25;;;;;22.51;46.99;101934.28;5059641;28;45469;-84
2021/06/08 10:00:07;;;;;;;;;15.50;15.25;;;;;22.55;47.18;101936.09;5058765;28;45459;-82
2021/06/08 10:02:39;;;;;;;;;18.50;18.25;;;;;22.62;46.26;101937.09;5059737;28;45236;-82
2021/06/08 10:05:23;;;;;;;;;16.75;15.50;;;;;22.64;45.97;101935.31;5061488;28;45385;-82
2021/06/08 10:08:13;;;;;;;;;18.75;17.25;;;;;22.59;45.88;101934.38;5059004;28;45307;-82
2021/06/08 10:10:41;;;;;;;;;20.00;19.00;;;;;22.70;45.59;101941.56;5058119;28;45545;-84
2021/06/08 10:13:15;;;;;;;;;15.75;15.75;;;;;22.78;45.48;101928.47;5059432;28;45486;-88
2021/06/08 10:16:03;;;;;;;;;14.75;14.75;;;;;22.83;45.43;101923.25;5059052;28;46185;-83
2021/06/08 10:18:45;;;;;;;;;19.00;16.50;;;;;22.92;45.64;101931.25;5061216;28;45961;-84
2021/06/08 10:21:11;;;;;;;;;11.00;11.00;;;;;22.98;44.59;101918.16;5065444;28;45452;-82
2021/06/08 10:23:38;;;;;;;;;17.50;15.25;;;;;23.00;44.39;101913.75;5065301;28;45280;-87
2021/06/08 10:26:09;;;;;;;;;18.00;16.75;;;;;23.06;44.82;101912.91;5052777;28;47641;-79
2021/06/08 10:28:35;;;;;;;;;19.50;19.50;;;;;23.13;45.86;101913.88;5045735;28;45193;-83
2021/06/08 10:31:01;;;;;;;;;19.75;18.75;;;;;23.18;45.06;101906.91;5058295;28;45408;-90
2021/06/08 10:33:28;;;;;;;;;23.50;20.50;;;;;23.22;46.04;101907.84;5063516;28;45534;-82
2021/06/08 10:35:55;;;;;;;;;20.00;18.75;;;;;23.28;45.52;101916.72;5057859;28;47072;-82
2021/06/08 10:38:22;;;;;;;;;16.50;16.50;;;;;23.36;44.61;101908.88;5057806;28;45331;-81
2021/06/08 10:40:53;;;;;;;;;16.00;15.00;;;;;23.43;44.64;101915.09;5057228;28;45376;-80
2021/06/08 10:43:22;;;;;;;;;14.75;14.00;;;;;23.41;44.21;101912.41;5057088;28;45343;-78
2021/06/08 10:45:55;;;;;;;;;12.25;12.25;;;;;23.43;43.57;101905.41;5056697;28;45336;-81
2021/06/08 10:48:26;;;;;;;;;14.50;13.50;;;;;23.50;43.19;101907.22;5057760;28;45322;-80
2021/06/08 10:51:19;;;;;;;;;16.00;14.00;;;;;23.52;43.06;101912.53;5058996;28;45396;-79
2021/06/08 10:53:48;;;;;;;;;13.75;12.00;;;;;23.55;42.67;101906.38;5060482;28;45231;-82
2021/06/08 10:56:32;;;;;;;;;13.25;13.25;;;;;23.60;42.12;101908.19;5066418;28;45507;-79
2021/06/08 10:59:00;;;;;;;;;15.50;14.50;;;;;23.73;41.80;101903.88;5036247;28;45272;-79
2021/06/08 11:01:38;;;;;;;;;14.00;14.00;;;;;23.80;42.01;101911.00;5036415;28;45372;-80
2021/06/08 11:04:09;;;;;;;;;15.25;15.25;;;;;23.87;41.62;101901.31;5037349;28;45311;-83
2021/06/08 11:06:38;;;;;;;;;14.50;13.75;;;;;24.02;41.25;101911.19;5038397;28;46536;-79
2021/06/08 11:09:14;;;;;;;;;24.50;20.00;;;;;24.06;40.84;101905.00;5037100;28;45724;-80
2021/06/08 11:11:59;;;;;;;;;15.00;15.00;;;;;24.14;40.58;101901.50;5036803;28;45226;-80
2021/06/08 11:14:31;;;;;;;;;12.25;12.25;;;;;24.17;40.61;101905.09;5036659;28;45312;-78
2021/06/08 11:17:04;;;;;;;;;15.75;12.50;;;;;24.19;39.98;101902.44;5035953;28;45715;-81
2021/06/08 11:19:44;;;;;;;;;12.75;11.00;;;;;24.21;40.44;101904.22;5049456;28;45438;-82